sensor_id;sensor_type;location;lat;lon;timestamp;P1;durP1;ratioP1;P2;durP2;ratioP2
28958;SDS011;16066;0.000;0.000;2023-08-30T05:30:25;10.50;;;7.57;;
28958;SDS011;16066;0.000;0.000;2023-08-30T05:32:51;12.60;;;7.57;;
28958;SDS011;16066;0.000;0.000;2023-08-30T05:35:16;7.73;;;6.93;;
28958;SDS011;16066;0.000;0.000;2023-08-30T05:37:42;9.67;;;7.10;;
28958;SDS011;16066;0.000;0.000;2023-08-30T05:40:07;9.90;;;7.57;;
28958;SDS011;16066;0.000;0.000;2023-08-30T05:42:33;8.50;;;6.83;;
28958;SDS011;16066;0.000;0.000;2023-08-30T05:44:59;8.10;;;7.30;;
28958;SDS011;16066;0.000;0.000;2023-08-30T05:47:24;8.80;;;7.70;;
28958;SDS011;16066;0.000;0.000;2023-08-30T05:49:50;9.40;;;6.73;;
28958;SDS011;16066;0.000;0.000;2023-08-30T05:52:15;8.83;;;6.77;;
28958;SDS011;16066;0.000;0.000;2023-08-30T05:54:41;10.77;;;7.67;;
28958;SDS011;16066;0.000;0.000;2023-08-30T05:57:07;10.10;;;7.93;;
28958;SDS011;16066;0.000;0.000;2023-08-30T05:59:34;10.13;;;8.63;;
28958;SDS011;16066;0.000;0.000;2023-08-30T06:02:00;12.73;;;8.63;;
28958;SDS011;16066;0.000;0.000;2023-08-30T06:04:26;18.03;;;9.47;;
28958;SDS011;16066;0.000;0.000;2023-08-30T06:06:51;9.93;;;6.90;;
28958;SDS011;16066;0.000;0.000;2023-08-30T06:09:17;9.97;;;8.33;;
28958;SDS011;16066;0.000;0.000;2023-08-30T06:11:42;15.40;;;7.73;;
28958;SDS011;16066;0.000;0.000;2023-08-30T06:14:08;19.60;;;8.77;;
28958;SDS011;16066;0.000;0.000;2023-08-30T06:16:33;18.43;;;9.87;;
28958;SDS011;16066;0.000;0.000;2023-08-30T06:18:59;12.07;;;8.27;;
28958;SDS011;16066;0.000;0.000;2023-08-30T06:21:25;16.60;;;9.50;;
28958;SDS011;16066;0.000;0.000;2023-08-30T06:23:51;12.97;;;9.00;;
28958;SDS011;16066;0.000;0.000;2023-08-30T06:26:17;11.50;;;8.93;;
28958;SDS011;16066;0.000;0.000;2023-08-30T06:28:42;14.87;;;9.20;;
28958;SDS011;16066;0.000;0.000;2023-08-30T06:31:09;15.10;;;9.53;;
28958;SDS011;16066;0.000;0.000;2023-08-30T06:33:35;16.60;;;9.30;;
28958;SDS011;16066;0.000;0.000;2023-08-30T06:36:01;12.97;;;8.60;;
28958;SDS011;16066;0.000;0.000;2023-08-30T06:38:27;19.63;;;8.10;;
28958;SDS011;16066;0.000;0.000;2023-08-30T06:40:52;12.53;;;6.90;;
28958;SDS011;16066;0.000;0.000;2023-08-30T06:43:18;11.93;;;7.63;;
28958;SDS011;16066;0.000;0.000;2023-08-30T06:45:44;8.70;;;6.50;;
28958;SDS011;16066;0.000;0.000;2023-08-30T06:48:09;9.37;;;7.30;;
28958;SDS011;16066;0.000;0.000;2023-08-30T06:50:35;11.87;;;5.90;;
28958;SDS011;16066;0.000;0.000;2023-08-30T06:53:02;11.30;;;7.90;;
28958;SDS011;16066;0.000;0.000;2023-08-30T06:55:28;12.30;;;5.60;;
28958;SDS011;16066;0.000;0.000;2023-08-30T06:57:53;14.10;;;7.37;;
28958;SDS011;16066;0.000;0.000;2023-08-30T07:00:19;10.70;;;7.20;;
28958;SDS011;16066;0.000;0.000;2023-08-30T07:02:45;6.90;;;4.63;;
28958;SDS011;16066;0.000;0.000;2023-08-30T07:05:13;10.20;;;6.57;;
28958;SDS011;16066;0.000;0.000;2023-08-30T07:07:40;6.67;;;5.00;;
28958;SDS011;16066;0.000;0.000;2023-08-30T07:10:05;8.07;;;5.37;;
28958;SDS011;16066;0.000;0.000;2023-08-30T07:12:31;8.93;;;5.20;;
28958;SDS011;16066;0.000;0.000;2023-08-30T07:14:57;7.40;;;5.97;;
28958;SDS011;16066;0.000;0.000;2023-08-30T07:17:23;8.13;;;5.60;;
28958;SDS011;16066;0.000;0.000;2023-08-30T07:19:48;18.40;;;6.03;;
28958;SDS011;16066;0.000;0.000;2023-08-30T07:22:14;8.20;;;5.77;;
28958;SDS011;16066;0.000;0.000;2023-08-30T07:24:44;8.67;;;4.70;;
28958;SDS011;16066;0.000;0.000;2023-08-30T07:27:09;6.03;;;4.93;;
28958;SDS011;16066;0.000;0.000;2023-08-30T07:29:37;7.27;;;4.77;;
28958;SDS011;16066;0.000;0.000;2023-08-30T07:32:05;7.20;;;4.90;;
28958;SDS011;16066;0.000;0.000;2023-08-30T07:34:30;5.90;;;4.83;;
28958;SDS011;16066;0.000;0.000;2023-08-30T07:36:56;8.33;;;4.90;;
28958;SDS011;16066;0.000;0.000;2023-08-30T07:39:21;12.40;;;4.50;;
28958;SDS011;16066;0.000;0.000;2023-08-30T07:41:47;7.83;;;4.07;;
28958;SDS011;16066;0.000;0.000;2023-08-30T07:44:13;4.87;;;4.03;;
28958;SDS011;16066;0.000;0.000;2023-08-30T07:46:38;5.60;;;4.90;;
28958;SDS011;16066;0.000;0.000;2023-08-30T07:49:04;6.73;;;4.23;;
28958;SDS011;16066;0.000;0.000;2023-08-30T07:51:29;5.90;;;3.90;;
28958;SDS011;16066;0.000;0.000;2023-08-30T07:53:55;5.60;;;4.17;;
28958;SDS011;16066;0.000;0.000;2023-08-30T07:56:20;7.83;;;3.63;;
28958;SDS011;16066;0.000;0.000;2023-08-30T07:58:46;9.60;;;4.00;;
28958;SDS011;16066;0.000;0.000;2023-08-30T08:01:12;8.23;;;3.17;;
28958;SDS011;16066;0.000;0.000;2023-08-30T08:03:37;7.47;;;3.70;;
28958;SDS011;16066;0.000;0.000;2023-08-30T08:06:03;5.17;;;4.17;;
28958;SDS011;16066;0.000;0.000;2023-08-30T08:08:28;4.20;;;3.40;;
28958;SDS011;16066;0.000;0.000;2023-08-30T08:10:54;7.90;;;3.50;;
28958;SDS011;16066;0.000;0.000;2023-08-30T08:13:20;5.37;;;3.60;;
28958;SDS011;16066;0.000;0.000;2023-08-30T08:15:45;4.23;;;3.40;;
28958;SDS011;16066;0.000;0.000;2023-08-30T08:18:11;5.03;;;3.57;;
28958;SDS011;16066;0.000;0.000;2023-08-30T08:20:36;5.20;;;3.10;;
28958;SDS011;16066;0.000;0.000;2023-08-30T08:23:02;4.67;;;3.30;;
28958;SDS011;16066;0.000;0.000;2023-08-30T08:25:28;4.80;;;2.67;;
28958;SDS011;16066;0.000;0.000;2023-08-30T08:27:54;6.10;;;3.30;;
28958;SDS011;16066;0.000;0.000;2023-08-30T08:30:19;4.27;;;2.83;;
28958;SDS011;16066;0.000;0.000;2023-08-30T08:32:46;3.67;;;2.77;;
28958;SDS011;16066;0.000;0.000;2023-08-30T08:35:15;4.30;;;2.90;;
28958;SDS011;16066;0.000;0.000;2023-08-30T08:37:41;5.30;;;3.03;;
28958;SDS011;16066;0.000;0.000;2023-08-30T08:40:06;5.70;;;3.50;;
28958;SDS011;16066;0.000;0.000;2023-08-30T08:42:35;4.33;;;3.40;;
28958;SDS011;16066;0.000;0.000;2023-08-30T08:45:02;7.53;;;3.80;;
28958;SDS011;16066;0.000;0.000;2023-08-30T08:47:29;4.13;;;3.10;;
28958;SDS011;16066;0.000;0.000;2023-08-30T08:49:55;4.73;;;3.37;;
28958;SDS011;16066;0.000;0.000;2023-08-30T08:52:21;9.23;;;3.87;;
28958;SDS011;16066;0.000;0.000;2023-08-30T08:54:48;4.40;;;3.57;;
28958;SDS011;16066;0.000;0.000;2023-08-30T08:57:14;6.60;;;3.97;;
28958;SDS011;16066;0.000;0.000;2023-08-30T08:59:39;4.80;;;3.23;;
28958;SDS011;16066;0.000;0.000;2023-08-30T09:02:05;7.10;;;3.73;;
28958;SDS011;16066;0.000;0.000;2023-08-30T09:04:31;4.50;;;2.60;;
28958;SDS011;16066;0.000;0.000;2023-08-30T09:07:00;5.50;;;3.37;;
28958;SDS011;16066;0.000;0.000;2023-08-30T09:09:26;6.00;;;3.37;;
28958;SDS011;16066;0.000;0.000;2023-08-30T09:11:52;3.93;;;3.20;;
28958;SDS011;16066;0.000;0.000;2023-08-30T09:14:18;4.23;;;2.93;;
28958;SDS011;16066;0.000;0.000;2023-08-30T09:16:57;6.70;;;3.27;;
28958;SDS011;16066;0.000;0.000;2023-08-30T09:19:25;7.40;;;3.37;;
28958;SDS011;16066;0.000;0.000;2023-08-30T09:21:54;5.20;;;3.60;;
28958;SDS011;16066;0.000;0.000;2023-08-30T09:24:20;3.73;;;3.00;;
28958;SDS011;16066;0.000;0.000;2023-08-30T09:26:50;4.80;;;3.50;;
28958;SDS011;16066;0.000;0.000;2023-08-30T09:29:17;10.53;;;4.00;;
28958;SDS011;16066;0.000;0.000;2023-08-30T09:31:43;5.47;;;3.60;;
28958;SDS011;16066;0.000;0.000;2023-08-30T09:34:09;6.87;;;3.10;;
28958;SDS011;16066;0.000;0.000;2023-08-30T09:36:39;3.57;;;3.00;;
28958;SDS011;16066;0.000;0.000;2023-08-30T09:39:10;6.63;;;3.77;;
28958;SDS011;16066;0.000;0.000;2023-08-30T09:41:37;8.67;;;3.40;;
28958;SDS011;16066;0.000;0.000;2023-08-30T09:44:09;4.70;;;3.13;;
28958;SDS011;16066;0.000;0.000;2023-08-30T09:46:42;5.33;;;3.17;;
28958;SDS011;16066;0.000;0.000;2023-08-30T09:49:12;5.53;;;3.47;;
28958;SDS011;16066;0.000;0.000;2023-08-30T09:51:38;7.80;;;3.80;;
28958;SDS011;16066;0.000;0.000;2023-08-30T09:54:18;4.37;;;3.43;;
28958;SDS011;16066;0.000;0.000;2023-08-30T09:56:45;9.43;;;4.10;;
28958;SDS011;16066;0.000;0.000;2023-08-30T09:59:12;7.37;;;3.80;;
28958;SDS011;16066;0.000;0.000;2023-08-30T10:01:40;7.00;;;3.50;;
28958;SDS011;16066;0.000;0.000;2023-08-30T10:04:10;5.40;;;3.50;;
28958;SDS011;16066;0.000;0.000;2023-08-30T10:06:39;6.03;;;3.50;;
28958;SDS011;16066;0.000;0.000;2023-08-30T10:09:05;11.03;;;4.97;;
28958;SDS011;16066;0.000;0.000;2023-08-30T10:11:33;6.40;;;3.40;;
28958;SDS011;16066;0.000;0.000;2023-08-30T10:14:00;5.30;;;3.20;;
28958;SDS011;16066;0.000;0.000;2023-08-30T10:16:33;4.10;;;3.67;;
28958;SDS011;16066;0.000;0.000;2023-08-30T10:19:13;5.43;;;3.50;;
28958;SDS011;16066;0.000;0.000;2023-08-30T10:21:48;5.23;;;3.13;;
28958;SDS011;16066;0.000;0.000;2023-08-30T10:24:25;4.63;;;3.60;;
28958;SDS011;16066;0.000;0.000;2023-08-30T10:26:51;15.93;;;4.20;;
28958;SDS011;16066;0.000;0.000;2023-08-30T10:29:19;14.67;;;4.23;;
28958;SDS011;16066;0.000;0.000;2023-08-30T10:31:45;8.57;;;4.40;;
28958;SDS011;16066;0.000;0.000;2023-08-30T10:34:14;13.57;;;3.77;;
28958;SDS011;16066;0.000;0.000;2023-08-30T10:36:42;6.97;;;3.80;;
28958;SDS011;16066;0.000;0.000;2023-08-30T10:39:20;5.40;;;3.70;;
28958;SDS011;16066;0.000;0.000;2023-08-30T10:42:10;4.10;;;2.90;;
28958;SDS011;16066;0.000;0.000;2023-08-30T10:44:50;4.03;;;3.20;;
28958;SDS011;16066;0.000;0.000;2023-08-30T10:47:29;4.13;;;2.70;;
28958;SDS011;16066;0.000;0.000;2023-08-30T10:49:56;5.93;;;2.73;;
28958;SDS011;16066;0.000;0.000;2023-08-30T10:52:22;5.20;;;3.30;;
28958;SDS011;16066;0.000;0.000;2023-08-30T10:54:49;11.07;;;4.20;;
28958;SDS011;16066;0.000;0.000;2023-08-30T10:57:17;5.90;;;3.00;;
28958;SDS011;16066;0.000;0.000;2023-08-30T11:02:32;5.03;;;4.13;;
28958;SDS011;16066;0.000;0.000;2023-08-30T11:04:59;10.87;;;3.17;;
28958;SDS011;16066;0.000;0.000;2023-08-30T11:07:25;7.30;;;3.53;;
28958;SDS011;16066;0.000;0.000;2023-08-30T11:09:54;8.40;;;3.50;;
28958;SDS011;16066;0.000;0.000;2023-08-30T11:12:19;6.40;;;3.70;;
28958;SDS011;16066;0.000;0.000;2023-08-30T11:14:48;4.40;;;3.30;;
28958;SDS011;16066;0.000;0.000;2023-08-30T11:17:18;4.67;;;3.60;;
28958;SDS011;16066;0.000;0.000;2023-08-30T11:19:44;7.27;;;3.27;;
28958;SDS011;16066;0.000;0.000;2023-08-30T11:22:10;5.30;;;3.73;;
28958;SDS011;16066;0.000;0.000;2023-08-30T11:24:37;6.47;;;3.23;;
28958;SDS011;16066;0.000;0.000;2023-08-30T11:27:03;5.97;;;3.63;;
28958;SDS011;16066;0.000;0.000;2023-08-30T11:29:28;9.00;;;3.43;;
28958;SDS011;16066;0.000;0.000;2023-08-30T11:31:54;6.70;;;3.67;;
28958;SDS011;16066;0.000;0.000;2023-08-30T11:34:20;5.60;;;4.60;;
28958;SDS011;16066;0.000;0.000;2023-08-30T11:36:49;5.63;;;3.80;;
28958;SDS011;16066;0.000;0.000;2023-08-30T11:39:15;7.17;;;3.83;;
28958;SDS011;16066;0.000;0.000;2023-08-30T11:41:42;6.77;;;4.00;;
28958;SDS011;16066;0.000;0.000;2023-08-30T11:44:08;4.97;;;3.23;;
28958;SDS011;16066;0.000;0.000;2023-08-30T11:46:34;4.93;;;2.83;;
28958;SDS011;16066;0.000;0.000;2023-08-30T11:49:00;5.57;;;3.60;;
28958;SDS011;16066;0.000;0.000;2023-08-30T11:51:25;5.73;;;2.37;;
28958;SDS011;16066;0.000;0.000;2023-08-30T11:53:51;3.73;;;2.10;;
28958;SDS011;16066;0.000;0.000;2023-08-30T11:56:19;2.20;;;1.80;;
28958;SDS011;16066;0.000;0.000;2023-08-30T11:58:45;3.13;;;2.00;;
28958;SDS011;16066;0.000;0.000;2023-08-30T12:01:10;2.20;;;1.73;;
28958;SDS011;16066;0.000;0.000;2023-08-30T12:03:36;2.17;;;1.40;;
28958;SDS011;16066;0.000;0.000;2023-08-30T12:06:01;2.60;;;1.70;;
28958;SDS011;16066;0.000;0.000;2023-08-30T12:08:31;2.70;;;2.00;;
28958;SDS011;16066;0.000;0.000;2023-08-30T12:10:57;2.30;;;2.00;;
28958;SDS011;16066;0.000;0.000;2023-08-30T12:13:26;2.90;;;2.20;;
28958;SDS011;16066;0.000;0.000;2023-08-30T12:15:58;4.77;;;1.93;;
28958;SDS011;16066;0.000;0.000;2023-08-30T12:18:25;2.53;;;2.00;;
28958;SDS011;16066;0.000;0.000;2023-08-30T12:20:57;2.40;;;2.00;;
28958;SDS011;16066;0.000;0.000;2023-08-30T12:23:27;3.37;;;2.00;;
28958;SDS011;16066;0.000;0.000;2023-08-30T12:28:26;2.33;;;1.80;;
28958;SDS011;16066;0.000;0.000;2023-08-30T12:30:53;3.23;;;1.60;;
28958;SDS011;16066;0.000;0.000;2023-08-30T12:33:19;4.00;;;2.30;;
28958;SDS011;16066;0.000;0.000;2023-08-30T12:35:45;5.50;;;2.40;;
28958;SDS011;16066;0.000;0.000;2023-08-30T12:38:10;3.73;;;2.33;;
28958;SDS011;16066;0.000;0.000;2023-08-30T12:40:43;3.20;;;2.20;;
28958;SDS011;16066;0.000;0.000;2023-08-30T12:43:10;3.00;;;2.30;;
28958;SDS011;16066;0.000;0.000;2023-08-30T12:45:36;6.77;;;1.77;;
28958;SDS011;16066;0.000;0.000;2023-08-30T12:48:02;2.93;;;2.20;;
28958;SDS011;16066;0.000;0.000;2023-08-30T12:50:28;3.43;;;2.10;;
28958;SDS011;16066;0.000;0.000;2023-08-30T12:52:53;3.50;;;2.70;;
28958;SDS011;16066;0.000;0.000;2023-08-30T12:55:19;3.70;;;1.97;;
28958;SDS011;16066;0.000;0.000;2023-08-30T12:57:44;3.60;;;2.13;;
28958;SDS011;16066;0.000;0.000;2023-08-30T13:00:11;2.73;;;2.17;;
28958;SDS011;16066;0.000;0.000;2023-08-30T13:02:38;2.13;;;1.93;;
28958;SDS011;16066;0.000;0.000;2023-08-30T13:05:04;2.20;;;1.73;;
28958;SDS011;16066;0.000;0.000;2023-08-30T13:07:30;1.63;;;1.53;;
28958;SDS011;16066;0.000;0.000;2023-08-30T13:09:55;2.53;;;1.70;;
28958;SDS011;16066;0.000;0.000;2023-08-30T13:12:21;2.80;;;1.73;;
28958;SDS011;16066;0.000;0.000;2023-08-30T13:14:47;3.70;;;1.50;;
28958;SDS011;16066;0.000;0.000;2023-08-30T13:17:12;3.13;;;1.77;;
28958;SDS011;16066;0.000;0.000;2023-08-30T13:19:38;3.10;;;1.90;;
28958;SDS011;16066;0.000;0.000;2023-08-30T13:22:03;2.23;;;1.93;;
28958;SDS011;16066;0.000;0.000;2023-08-30T13:24:29;2.60;;;2.40;;
28958;SDS011;16066;0.000;0.000;2023-08-30T13:26:57;3.90;;;2.60;;
28958;SDS011;16066;0.000;0.000;2023-08-30T13:29:23;3.20;;;1.97;;
28958;SDS011;16066;0.000;0.000;2023-08-30T13:31:48;3.20;;;2.10;;
28958;SDS011;16066;0.000;0.000;2023-08-30T13:34:14;2.63;;;2.37;;
28958;SDS011;16066;0.000;0.000;2023-08-30T13:36:40;4.10;;;2.30;;
28958;SDS011;16066;0.000;0.000;2023-08-30T13:39:06;5.87;;;2.77;;
28958;SDS011;16066;0.000;0.000;2023-08-30T13:41:31;2.90;;;2.20;;
28958;SDS011;16066;0.000;0.000;2023-08-30T13:43:57;2.30;;;2.00;;
28958;SDS011;16066;0.000;0.000;2023-08-30T13:46:22;3.77;;;2.50;;
28958;SDS011;16066;0.000;0.000;2023-08-30T13:48:48;3.03;;;2.50;;
28958;SDS011;16066;0.000;0.000;2023-08-30T13:51:14;3.13;;;1.93;;
28958;SDS011;16066;0.000;0.000;2023-08-30T13:53:39;6.60;;;1.90;;
28958;SDS011;16066;0.000;0.000;2023-08-30T13:56:05;3.23;;;1.87;;
28958;SDS011;16066;0.000;0.000;2023-08-30T13:58:30;2.77;;;2.40;;
28958;SDS011;16066;0.000;0.000;2023-08-30T14:00:56;2.27;;;1.90;;
28958;SDS011;16066;0.000;0.000;2023-08-30T14:03:21;3.07;;;2.00;;
28958;SDS011;16066;0.000;0.000;2023-08-30T14:05:47;3.73;;;2.27;;
28958;SDS011;16066;0.000;0.000;2023-08-30T14:08:12;4.60;;;2.40;;
28958;SDS011;16066;0.000;0.000;2023-08-30T14:10:38;3.23;;;1.70;;
28958;SDS011;16066;0.000;0.000;2023-08-30T14:13:03;2.90;;;2.50;;
28958;SDS011;16066;0.000;0.000;2023-08-30T14:15:30;4.30;;;2.13;;
28958;SDS011;16066;0.000;0.000;2023-08-30T14:17:56;1.60;;;1.50;;
28958;SDS011;16066;0.000;0.000;2023-08-30T14:20:21;1.90;;;1.70;;
28958;SDS011;16066;0.000;0.000;2023-08-30T14:22:47;2.47;;;1.93;;
28958;SDS011;16066;0.000;0.000;2023-08-30T14:25:12;2.03;;;1.83;;
28958;SDS011;16066;0.000;0.000;2023-08-30T14:27:38;9.83;;;2.77;;
28958;SDS011;16066;0.000;0.000;2023-08-30T14:30:04;7.60;;;1.73;;
28958;SDS011;16066;0.000;0.000;2023-08-30T14:32:30;3.50;;;1.70;;
28958;SDS011;16066;0.000;0.000;2023-08-30T14:34:56;2.10;;;1.50;;
28958;SDS011;16066;0.000;0.000;2023-08-30T14:37:22;1.97;;;1.53;;
28958;SDS011;16066;0.000;0.000;2023-08-30T14:39:47;2.07;;;1.67;;
28958;SDS011;16066;0.000;0.000;2023-08-30T14:42:13;2.30;;;1.80;;
28958;SDS011;16066;0.000;0.000;2023-08-30T14:44:38;2.23;;;1.83;;
28958;SDS011;16066;0.000;0.000;2023-08-30T14:47:04;3.33;;;1.73;;
28958;SDS011;16066;0.000;0.000;2023-08-30T14:49:30;2.90;;;1.80;;
28958;SDS011;16066;0.000;0.000;2023-08-30T14:51:56;2.20;;;1.67;;
28958;SDS011;16066;0.000;0.000;2023-08-30T14:54:22;2.83;;;1.90;;
28958;SDS011;16066;0.000;0.000;2023-08-30T14:56:48;2.63;;;1.80;;
28958;SDS011;16066;0.000;0.000;2023-08-30T14:59:13;2.87;;;2.30;;
28958;SDS011;16066;0.000;0.000;2023-08-30T15:01:39;2.40;;;2.20;;
28958;SDS011;16066;0.000;0.000;2023-08-30T15:04:04;3.40;;;2.30;;
28958;SDS011;16066;0.000;0.000;2023-08-30T15:06:30;2.73;;;2.17;;
28958;SDS011;16066;0.000;0.000;2023-08-30T15:08:55;3.03;;;2.10;;
28958;SDS011;16066;0.000;0.000;2023-08-30T15:11:21;3.20;;;2.10;;
28958;SDS011;16066;0.000;0.000;2023-08-30T15:13:46;3.83;;;2.37;;
28958;SDS011;16066;0.000;0.000;2023-08-30T15:16:12;2.63;;;2.20;;
28958;SDS011;16066;0.000;0.000;2023-08-30T15:18:38;5.70;;;2.70;;
28958;SDS011;16066;0.000;0.000;2023-08-30T15:21:03;4.53;;;2.60;;
28958;SDS011;16066;0.000;0.000;2023-08-30T15:23:29;4.90;;;2.97;;
28958;SDS011;16066;0.000;0.000;2023-08-30T15:25:54;2.33;;;2.13;;
28958;SDS011;16066;0.000;0.000;2023-08-30T15:28:20;2.63;;;2.40;;
28958;SDS011;16066;0.000;0.000;2023-08-30T15:30:45;2.70;;;2.40;;
28958;SDS011;16066;0.000;0.000;2023-08-30T15:33:13;4.13;;;2.87;;
28958;SDS011;16066;0.000;0.000;2023-08-30T15:35:39;3.20;;;2.70;;
28958;SDS011;16066;0.000;0.000;2023-08-30T15:38:06;3.57;;;2.80;;
28958;SDS011;16066;0.000;0.000;2023-08-30T15:40:32;2.53;;;2.33;;
28958;SDS011;16066;0.000;0.000;2023-08-30T15:42:59;5.90;;;2.57;;
28958;SDS011;16066;0.000;0.000;2023-08-30T15:45:28;3.60;;;2.93;;
28958;SDS011;16066;0.000;0.000;2023-08-30T15:47:54;6.30;;;2.83;;
28958;SDS011;16066;0.000;0.000;2023-08-30T15:50:19;3.87;;;2.67;;
28958;SDS011;16066;0.000;0.000;2023-08-30T15:52:45;3.70;;;2.60;;
28958;SDS011;16066;0.000;0.000;2023-08-30T15:55:10;5.27;;;2.80;;
28958;SDS011;16066;0.000;0.000;2023-08-30T15:57:36;3.17;;;2.87;;
28958;SDS011;16066;0.000;0.000;2023-08-30T16:00:02;3.20;;;2.57;;
28958;SDS011;16066;0.000;0.000;2023-08-30T16:02:28;4.50;;;2.57;;
28958;SDS011;16066;0.000;0.000;2023-08-30T16:04:54;4.33;;;2.40;;
28958;SDS011;16066;0.000;0.000;2023-08-30T16:07:19;5.23;;;2.27;;
28958;SDS011;16066;0.000;0.000;2023-08-30T16:09:45;5.13;;;2.73;;
28958;SDS011;16066;0.000;0.000;2023-08-30T16:12:13;3.70;;;2.27;;
28958;SDS011;16066;0.000;0.000;2023-08-30T16:14:38;5.00;;;2.60;;
28958;SDS011;16066;0.000;0.000;2023-08-30T16:17:04;2.90;;;2.60;;
28958;SDS011;16066;0.000;0.000;2023-08-30T16:19:30;3.30;;;2.50;;
28958;SDS011;16066;0.000;0.000;2023-08-30T16:21:55;6.83;;;2.57;;
28958;SDS011;16066;0.000;0.000;2023-08-30T16:24:21;5.57;;;2.23;;
28958;SDS011;16066;0.000;0.000;2023-08-30T16:26:51;3.53;;;2.27;;
28958;SDS011;16066;0.000;0.000;2023-08-30T16:29:20;3.50;;;2.23;;
28958;SDS011;16066;0.000;0.000;2023-08-30T16:31:46;3.17;;;2.30;;
28958;SDS011;16066;0.000;0.000;2023-08-30T16:34:14;3.60;;;2.37;;
28958;SDS011;16066;0.000;0.000;2023-08-30T16:36:39;6.00;;;3.13;;
28958;SDS011;16066;0.000;0.000;2023-08-30T16:39:05;5.60;;;3.10;;
28958;SDS011;16066;0.000;0.000;2023-08-30T16:41:31;4.60;;;3.23;;
28958;SDS011;16066;0.000;0.000;2023-08-30T16:43:57;5.77;;;3.47;;
28958;SDS011;16066;0.000;0.000;2023-08-30T16:46:22;5.03;;;3.80;;
28958;SDS011;16066;0.000;0.000;2023-08-30T16:48:48;12.13;;;4.20;;
28958;SDS011;16066;0.000;0.000;2023-08-30T16:51:13;6.00;;;3.83;;
28958;SDS011;16066;0.000;0.000;2023-08-30T16:53:40;7.10;;;3.70;;
28958;SDS011;16066;0.000;0.000;2023-08-30T16:56:05;7.10;;;4.10;;
28958;SDS011;16066;0.000;0.000;2023-08-30T16:58:31;9.80;;;3.97;;
28958;SDS011;16066;0.000;0.000;2023-08-30T17:00:57;6.23;;;4.03;;
28958;SDS011;16066;0.000;0.000;2023-08-30T17:03:23;7.10;;;4.10;;
28958;SDS011;16066;0.000;0.000;2023-08-30T17:05:49;5.97;;;3.70;;
28958;SDS011;16066;0.000;0.000;2023-08-30T17:08:14;6.10;;;3.43;;
28958;SDS011;16066;0.000;0.000;2023-08-30T17:10:40;6.13;;;4.20;;
28958;SDS011;16066;0.000;0.000;2023-08-30T17:13:07;13.37;;;5.50;;
28958;SDS011;16066;0.000;0.000;2023-08-30T17:15:33;20.73;;;5.77;;
28958;SDS011;16066;0.000;0.000;2023-08-30T17:17:59;9.77;;;5.10;;
28958;SDS011;16066;0.000;0.000;2023-08-30T17:20:24;6.90;;;5.07;;
28958;SDS011;16066;0.000;0.000;2023-08-30T17:22:50;7.17;;;4.77;;
28958;SDS011;16066;0.000;0.000;2023-08-30T17:25:15;6.20;;;3.97;;
28958;SDS011;16066;0.000;0.000;2023-08-30T17:27:41;5.83;;;4.63;;
28958;SDS011;16066;0.000;0.000;2023-08-30T17:30:07;7.13;;;4.53;;
28958;SDS011;16066;0.000;0.000;2023-08-30T17:32:37;8.00;;;4.47;;
28958;SDS011;16066;0.000;0.000;2023-08-30T17:35:02;4.53;;;4.10;;
28958;SDS011;16066;0.000;0.000;2023-08-30T17:37:29;8.40;;;4.50;;
28958;SDS011;16066;0.000;0.000;2023-08-30T17:39:54;7.77;;;4.10;;
28958;SDS011;16066;0.000;0.000;2023-08-30T17:42:20;9.63;;;3.60;;
28958;SDS011;16066;0.000;0.000;2023-08-30T17:44:45;5.80;;;4.00;;
28958;SDS011;16066;0.000;0.000;2023-08-30T17:47:12;6.30;;;4.00;;
28958;SDS011;16066;0.000;0.000;2023-08-30T17:49:38;6.13;;;4.40;;
28958;SDS011;16066;0.000;0.000;2023-08-30T17:52:04;8.53;;;4.47;;
28958;SDS011;16066;0.000;0.000;2023-08-30T17:54:29;6.40;;;4.10;;
28958;SDS011;16066;0.000;0.000;2023-08-30T17:56:57;8.40;;;3.63;;
28958;SDS011;16066;0.000;0.000;2023-08-30T17:59:23;6.87;;;3.73;;
28958;SDS011;16066;0.000;0.000;2023-08-30T18:01:48;4.80;;;3.50;;
28958;SDS011;16066;0.000;0.000;2023-08-30T18:04:15;8.23;;;3.67;;
28958;SDS011;16066;0.000;0.000;2023-08-30T18:06:40;6.80;;;4.13;;
28958;SDS011;16066;0.000;0.000;2023-08-30T18:09:06;7.77;;;4.07;;
28958;SDS011;16066;0.000;0.000;2023-08-30T18:11:33;12.70;;;5.40;;
28958;SDS011;16066;0.000;0.000;2023-08-30T18:13:59;5.23;;;4.30;;
28958;SDS011;16066;0.000;0.000;2023-08-30T18:16:24;8.37;;;4.20;;
28958;SDS011;16066;0.000;0.000;2023-08-30T18:18:50;8.23;;;4.27;;
28958;SDS011;16066;0.000;0.000;2023-08-30T18:21:15;8.70;;;4.53;;
28958;SDS011;16066;0.000;0.000;2023-08-30T18:24:27;7.80;;;4.33;;
28958;SDS011;16066;0.000;0.000;2023-08-30T18:26:36;6.70;;;4.40;;
28958;SDS011;16066;0.000;0.000;2023-08-30T18:29:02;6.17;;;3.90;;
28958;SDS011;16066;0.000;0.000;2023-08-30T18:31:27;5.10;;;3.80;;
28958;SDS011;16066;0.000;0.000;2023-08-30T18:33:53;11.73;;;3.70;;
28958;SDS011;16066;0.000;0.000;2023-08-30T18:36:18;7.43;;;4.00;;
28958;SDS011;16066;0.000;0.000;2023-08-30T18:38:44;5.60;;;3.60;;
28958;SDS011;16066;0.000;0.000;2023-08-30T18:41:09;5.80;;;4.00;;
28958;SDS011;16066;0.000;0.000;2023-08-30T18:43:41;5.40;;;3.43;;
28958;SDS011;16066;0.000;0.000;2023-08-30T18:46:07;6.40;;;3.33;;
28958;SDS011;16066;0.000;0.000;2023-08-30T18:48:33;5.93;;;3.87;;
28958;SDS011;16066;0.000;0.000;2023-08-30T18:50:58;8.40;;;3.20;;
28958;SDS011;16066;0.000;0.000;2023-08-30T18:53:24;5.73;;;2.70;;
28958;SDS011;16066;0.000;0.000;2023-08-30T18:55:49;3.90;;;2.67;;
28958;SDS011;16066;0.000;0.000;2023-08-30T18:58:17;8.13;;;3.00;;
28958;SDS011;16066;0.000;0.000;2023-08-30T19:00:46;5.77;;;3.10;;
28958;SDS011;16066;0.000;0.000;2023-08-30T19:03:13;5.73;;;2.93;;
28958;SDS011;16066;0.000;0.000;2023-08-30T19:05:39;11.03;;;5.40;;
28958;SDS011;16066;0.000;0.000;2023-08-30T19:08:05;13.63;;;3.77;;
28958;SDS011;16066;0.000;0.000;2023-08-30T19:10:32;9.20;;;3.30;;
28958;SDS011;16066;0.000;0.000;2023-08-30T19:12:58;7.13;;;3.77;;
28958;SDS011;16066;0.000;0.000;2023-08-30T19:15:23;11.67;;;4.30;;
28958;SDS011;16066;0.000;0.000;2023-08-30T19:17:49;10.23;;;3.73;;
28958;SDS011;16066;0.000;0.000;2023-08-30T19:20:15;6.63;;;3.53;;
28958;SDS011;16066;0.000;0.000;2023-08-30T19:22:41;7.70;;;3.63;;
28958;SDS011;16066;0.000;0.000;2023-08-30T19:25:07;6.83;;;3.60;;
28958;SDS011;16066;0.000;0.000;2023-08-30T19:27:39;6.33;;;3.03;;
28958;SDS011;16066;0.000;0.000;2023-08-30T19:30:06;8.80;;;3.57;;
28958;SDS011;16066;0.000;0.000;2023-08-30T19:32:32;6.67;;;3.40;;
28958;SDS011;16066;0.000;0.000;2023-08-30T19:34:58;7.20;;;3.63;;
28958;SDS011;16066;0.000;0.000;2023-08-30T19:37:23;9.10;;;3.10;;
28958;SDS011;16066;0.000;0.000;2023-08-30T19:39:53;7.23;;;3.50;;
28958;SDS011;16066;0.000;0.000;2023-08-30T19:42:19;8.20;;;2.83;;
28958;SDS011;16066;0.000;0.000;2023-08-30T19:44:49;14.07;;;3.60;;
28958;SDS011;16066;0.000;0.000;2023-08-30T19:47:28;7.03;;;3.50;;
28958;SDS011;16066;0.000;0.000;2023-08-30T19:49:57;7.50;;;3.33;;
28958;SDS011;16066;0.000;0.000;2023-08-30T19:52:23;10.00;;;3.87;;
28958;SDS011;16066;0.000;0.000;2023-08-30T19:54:49;9.43;;;3.60;;
28958;SDS011;16066;0.000;0.000;2023-08-30T19:57:15;9.17;;;3.20;;
28958;SDS011;16066;0.000;0.000;2023-08-30T19:59:41;4.67;;;3.23;;
28958;SDS011;16066;0.000;0.000;2023-08-30T20:02:07;5.67;;;3.03;;
28958;SDS011;16066;0.000;0.000;2023-08-30T20:04:34;5.93;;;2.90;;
28958;SDS011;16066;0.000;0.000;2023-08-30T20:06:59;4.80;;;3.33;;
28958;SDS011;16066;0.000;0.000;2023-08-30T20:09:25;8.83;;;3.80;;
28958;SDS011;16066;0.000;0.000;2023-08-30T20:11:50;11.80;;;3.07;;
28958;SDS011;16066;0.000;0.000;2023-08-30T20:14:16;6.53;;;3.20;;
28958;SDS011;16066;0.000;0.000;2023-08-30T20:16:44;8.40;;;3.33;;
28958;SDS011;16066;0.000;0.000;2023-08-30T20:19:11;6.33;;;3.67;;
28958;SDS011;16066;0.000;0.000;2023-08-30T20:21:39;7.40;;;3.60;;
28958;SDS011;16066;0.000;0.000;2023-08-30T20:24:04;10.03;;;3.03;;
28958;SDS011;16066;0.000;0.000;2023-08-30T20:26:30;9.20;;;3.53;;
28958;SDS011;16066;0.000;0.000;2023-08-30T20:28:56;7.60;;;3.43;;
28958;SDS011;16066;0.000;0.000;2023-08-30T20:31:21;10.47;;;3.67;;